Time;durP1;ratioP1;P1;durP2;ratioP2;P2;SDS_P1;SDS_P2;PMS_P1;PMS_P2;Temp;Humidity;BMP_temperature;BMP_pressure;BME280_temperature;BME280_humidity;BME280_pressure;Samples;Min_cycle;Max_cycle;Signal;HPM_P1;HPM_P2
2023/05/10 00:00:26;;;;;;;14.13;2.15;;;;;;;12.21;100.00;100513.31;5051271;28;20451;-76
2023/05/10 00:02:52;;;;;;;12.00;1.92;;;;;;;12.19;100.00;100512.78;5045343;28;20044;-76
2023/05/10 00:05:17;;;;;;;9.30;2.08;;;;;;;12.14;100.00;100506.47;5010616;28;20033;-76
2023/05/10 00:07:45;;;;;;;13.82;2.35;;;;;;;12.14;100.00;100507.28;5033274;28;20474;-76
2023/05/10 00:10:11;;;;;;;12.93;2.13;;;;;;;12.11;100.00;100510.69;5013336;28;20120;-76
2023/05/10 00:12:37;;;;;;;9.45;1.67;;;;;;;12.08;100.00;100514.06;5020451;28;20036;-76
2023/05/10 00:15:02;;;;;;;12.07;1.67;;;;;;;11.97;100.00;100521.75;5016975;28;20024;-76
2023/05/10 00:17:28;;;;;;;14.95;2.25;;;;;;;11.96;100.00;100517.34;5028015;28;20090;-76
2023/05/10 00:19:54;;;;;;;11.35;2.22;;;;;;;11.95;100.00;100510.13;5006975;28;20064;-76
2023/05/10 00:22:20;;;;;;;11.68;1.98;;;;;;;11.85;100.00;100525.03;5045796;28;20036;-76
2023/05/10 00:24:45;;;;;;;15.98;2.10;;;;;;;11.82;100.00;100522.00;5010164;28;20037;-76
2023/05/10 00:27:11;;;;;;;11.48;1.98;;;;;;;11.82;100.00;100522.81;5049969;28;20025;-76
2023/05/10 00:29:36;;;;;;;10.95;2.13;;;;;;;11.73;100.00;100521.84;5033147;28;20040;-76
2023/05/10 00:32:02;;;;;;;12.98;1.90;;;;;;;11.73;100.00;100521.00;5045528;28;20393;-76
2023/05/10 00:34:27;;;;;;;13.70;2.20;;;;;;;11.74;100.00;100522.66;5044256;28;20025;-76
2023/05/10 00:36:53;;;;;;;15.15;3.15;;;;;;;11.68;100.00;100527.50;5031829;28;20030;-76
2023/05/10 00:39:18;;;;;;;14.35;2.35;;;;;;;11.68;100.00;100521.09;5033458;28;20040;-76
2023/05/10 00:41:43;;;;;;;11.82;2.15;;;;;;;11.63;100.00;100524.78;5027830;28;20032;-76
2023/05/10 00:44:09;;;;;;;10.93;1.95;;;;;;;11.62;100.00;100517.56;5044004;28;20056;-76
2023/05/10 00:46:34;;;;;;;15.70;2.30;;;;;;;11.60;100.00;100526.19;5048921;28;20026;-76
2023/05/10 00:49:00;;;;;;;11.68;2.20;;;;;;;11.55;100.00;100520.72;5037291;28;20024;-76
2023/05/10 00:51:25;;;;;;;11.05;2.05;;;;;;;11.53;100.00;100517.41;5050656;28;20029;-76
2023/05/10 00:53:51;;;;;;;10.30;2.30;;;;;;;11.51;100.00;100521.63;5032371;28;20059;-76
2023/05/10 00:56:16;;;;;;;9.65;1.65;;;;;;;11.51;100.00;100521.63;5043589;28;20480;-76
2023/05/10 00:58:42;;;;;;;9.35;2.00;;;;;;;11.48;100.00;100517.50;5026490;28;20390;-76
2023/05/10 01:01:08;;;;;;;13.40;2.67;;;;;;;11.50;100.00;100517.19;5050163;28;20037;-76
2023/05/10 01:03:34;;;;;;;12.88;2.20;;;;;;;11.48;100.00;100509.16;5016022;28;20053;-76
2023/05/10 01:06:00;;;;;;;13.80;2.50;;;;;;;11.48;100.00;100516.63;4977287;28;20036;-76
2023/05/10 01:08:25;;;;;;;14.80;2.10;;;;;;;11.48;100.00;100520.28;5042794;28;20084;-76
2023/05/10 01:10:52;;;;;;;17.77;2.53;;;;;;;11.45;100.00;100517.25;5004634;28;20449;-76
2023/05/10 01:13:34;;;;;;;11.18;1.98;;;;;;;11.44;100.00;100510.84;5036884;28;20466;-76
2023/05/10 01:16:02;;;;;;;12.63;2.40;;;;;;;11.46;100.00;100522.50;5029864;28;20029;-76
2023/05/10 01:18:28;;;;;;;15.10;2.00;;;;;;;11.46;100.00;100518.91;5032681;28;20029;-76
2023/05/10 01:21:09;;;;;;;8.55;1.63;;;;;;;11.44;100.00;100516.41;5011947;28;20033;-76
2023/05/10 01:23:53;;;;;;;13.13;2.22;;;;;;;11.42;100.00;100518.66;5025810;28;20380;-76
2023/05/10 01:26:33;;;;;;;11.23;1.83;;;;;;;11.41;100.00;100511.47;5026765;28;20037;-76
2023/05/10 01:29:17;;;;;;;17.83;3.25;;;;;;;11.42;100.00;100518.66;5030910;28;20025;-76
2023/05/10 01:32:10;;;;;;;9.52;1.85;;;;;;;11.37;100.00;100516.81;5034473;28;20033;-76
2023/05/10 01:34:58;;;;;;;10.88;1.73;;;;;;;11.39;100.00;100509.00;5032223;28;20385;-76
2023/05/10 01:37:31;;;;;;;12.25;2.25;;;;;;;11.37;100.00;100510.41;5017320;28;20036;-76
2023/05/10 01:40:23;;;;;;;12.48;2.22;;;;;;;11.37;100.00;100516.81;5006102;28;20041;-76
2023/05/10 01:42:53;;;;;;;14.63;2.35;;;;;;;11.35;100.00;100519.03;5032140;28;20033;-76
2023/05/10 01:45:37;;;;;;;11.15;2.03;;;;;;;11.31;100.00;100520.78;4998422;28;20145;-76
2023/05/10 01:48:07;;;;;;;13.60;2.33;;;;;;;11.24;100.00;100523.09;5000896;28;20079;-76
2023/05/10 01:50:33;;;;;;;13.63;1.65;;;;;;;11.22;100.00;100524.50;5014492;28;20032;-76
2023/05/10 01:52:59;;;;;;;11.18;2.13;;;;;;;11.18;100.00;100525.13;5025124;28;20044;-76
2023/05/10 01:55:30;;;;;;;14.15;2.10;;;;;;;11.15;100.00;100536.00;5026086;28;20396;-76
2023/05/10 01:58:07;;;;;;;9.68;1.92;;;;;;;11.10;100.00;100530.50;5032040;28;20434;-76
2023/05/10 02:00:33;;;;;;;16.27;2.45;;;;;;;11.04;100.00;100528.91;5015094;28;20440;-76
2023/05/10 02:02:59;;;;;;;11.65;2.10;;;;;;;11.02;100.00;100528.38;5010512;28;20075;-76
2023/05/10 02:05:25;;;;;;;15.32;2.20;;;;;;;10.99;100.00;100528.97;5008624;28;20033;-76
2023/05/10 02:07:50;;;;;;;5.78;1.95;;;;;;;10.91;100.00;100530.44;5029882;28;20419;-76
2023/05/10 02:10:16;;;;;;;13.38;2.42;;;;;;;10.88;100.00;100528.25;5005574;28;20033;-76
2023/05/10 02:12:42;;;;;;;12.45;2.50;;;;;;;10.86;100.00;100541.63;5036400;28;20029;-76
2023/05/10 02:15:08;;;;;;;11.63;2.60;;;;;;;10.82;100.00;100530.28;4982391;28;20104;-76
2023/05/10 02:17:34;;;;;;;11.55;2.00;;;;;;;10.79;100.00;100539.19;5010815;28;20120;-76
2023/05/10 02:20:00;;;;;;;12.65;2.45;;;;;;;10.78;100.00;100534.78;5005514;28;20034;-76
2023/05/10 02:22:26;;;;;;;12.32;2.40;;;;;;;10.74;100.00;100531.75;4994910;28;20055;-76
2023/05/10 02:24:52;;;;;;;14.55;2.33;;;;;;;10.68;100.00;100526.56;5008508;28;20025;-76
2023/05/10 02:27:17;;;;;;;15.63;2.58;;;;;;;10.65;100.00;100527.13;5012824;28;20036;-76
2023/05/10 02:29:43;;;;;;;14.10;2.40;;;;;;;10.63;100.00;100529.38;5031308;28;20056;-76
2023/05/10 02:32:08;;;;;;;11.80;2.22;;;;;;;10.63;100.00;100526.59;5010921;28;20032;-76
2023/05/10 02:34:34;;;;;;;14.02;2.38;;;;;;;10.61;100.00;100526.06;5018912;28;20041;-76
2023/05/10 02:37:00;;;;;;;14.00;2.35;;;;;;;10.57;100.00;100536.13;5027912;28;20036;-76
2023/05/10 02:39:25;;;;;;;12.82;2.38;;;;;;;10.52;100.00;100531.44;5024814;28;20036;-76
2023/05/10 02:41:51;;;;;;;15.05;2.78;;;;;;;10.52;100.00;100542.53;4992608;28;20030;-76
2023/05/10 02:44:18;;;;;;;13.65;2.30;;;;;;;10.48;100.00;100542.31;5030850;28;20084;-76
2023/05/10 02:46:44;;;;;;;9.18;2.08;;;;;;;10.45;100.00;100539.28;5007697;28;20026;-76
2023/05/10 02:49:10;;;;;;;12.50;2.00;;;;;;;10.43;100.00;100541.53;5035612;28;20040;-76
2023/05/10 02:51:37;;;;;;;19.15;2.35;;;;;;;10.37;100.00;100531.59;5030396;28;20028;-76
2023/05/10 02:54:10;;;;;;;12.95;2.22;;;;;;;10.34;100.00;100546.88;5016084;28;20098;-76
2023/05/10 02:56:36;;;;;;;11.68;2.40;;;;;;;10.33;100.00;100559.09;5009569;28;20561;-76
2023/05/10 02:59:01;;;;;;;16.10;2.25;;;;;;;10.26;100.00;100559.41;5031693;28;20099;-76
2023/05/10 03:01:27;;;;;;;14.90;2.75;;;;;;;10.24;100.00;100558.03;5029124;28;20473;-76
2023/05/10 03:03:52;;;;;;;11.70;2.50;;;;;;;10.26;100.00;100559.41;4998391;28;20028;-76
2023/05/10 03:06:18;;;;;;;19.08;2.58;;;;;;;10.29;100.00;100566.34;5026768;28;20029;-76
2023/05/10 03:08:44;;;;;;;12.02;2.50;;;;;;;10.26;100.00;100569.69;5042121;28;20022;-76
2023/05/10 03:11:31;;;;;;;17.75;2.80;;;;;;;10.28;100.00;100565.53;5004020;28;20061;-76
2023/05/10 03:14:15;;;;;;;13.05;2.42;;;;;;;10.28;100.00;100559.16;5034328;28;20030;-76
2023/05/10 03:16:54;;;;;;;12.90;2.47;;;;;;;10.24;100.00;100560.81;5034339;28;20056;-76
2023/05/10 03:19:26;;;;;;;16.27;2.20;;;;;;;10.26;100.00;100556.63;4999951;28;20056;-76
2023/05/10 03:21:52;;;;;;;18.30;2.77;;;;;;;10.23;100.00;100560.00;5007225;28;20448;-76
2023/05/10 03:24:20;;;;;;;12.88;1.80;;;;;;;10.22;100.00;100563.03;4999684;28;20308;-76
2023/05/10 03:26:45;;;;;;;14.60;2.13;;;;;;;10.25;100.00;100562.47;4995227;28;20119;-77
2023/05/10 03:29:12;;;;;;;15.77;2.70;;;;;;;10.21;100.00;100556.66;5013376;28;20036;-76
2023/05/10 03:31:38;;;;;;;12.57;2.33;;;;;;;10.19;100.00;100558.91;5017685;28;20034;-76
2023/05/10 03:34:03;;;;;;;13.32;2.13;;;;;;;10.16;100.00;100562.25;4985156;28;20434;-76
2023/05/10 03:36:29;;;;;;;18.30;2.90;;;;;;;10.17;100.00;100563.94;5003522;28;20160;-76
2023/05/10 03:38:54;;;;;;;10.57;2.25;;;;;;;10.17;100.00;100565.84;4984062;28;20025;-76
2023/05/10 03:41:20;;;;;;;12.55;2.78;;;;;;;10.17;100.00;100565.84;5045327;28;20025;-76
2023/05/10 03:43:45;;;;;;;13.55;2.53;;;;;;;10.12;100.00;100568.69;5029072;28;20030;-76
2023/05/10 03:46:11;;;;;;;17.02;2.67;;;;;;;10.11;100.00;100567.84;5040980;28;20405;-76
2023/05/10 03:48:36;;;;;;;11.38;2.47;;;;;;;10.10;100.00;100568.97;5038580;28;20025;-76
2023/05/10 03:51:02;;;;;;;11.60;2.47;;;;;;;10.13;100.00;100570.34;5051589;28;20033;-76
2023/05/10 03:53:27;;;;;;;13.05;3.35;;;;;;;10.11;100.00;100573.38;5048189;28;20033;-76
2023/05/10 03:55:53;;;;;;;14.77;2.42;;;;;;;10.12;100.00;100569.50;4994329;28;20028;-76
2023/05/10 03:58:18;;;;;;;12.32;2.20;;;;;;;10.15;100.00;100562.56;5030661;28;20052;-76
2023/05/10 04:00:45;;;;;;;21.27;3.35;;;;;;;10.19;100.00;100569.16;5051175;28;20076;-76
2023/05/10 04:03:13;;;;;;;11.30;2.28;;;;;;;10.21;100.00;100562.22;5004400;28;20100;-76
2023/05/10 04:05:39;;;;;;;13.80;2.38;;;;;;;10.20;100.00;100562.53;5017291;28;20486;-76
2023/05/10 04:08:05;;;;;;;18.13;2.65;;;;;;;10.22;100.00;100560.25;4982044;28;20075;-77
2023/05/10 04:10:30;;;;;;;17.55;2.42;;;;;;;10.24;100.00;100555.25;5030246;28;20036;-76
2023/05/10 04:12:56;;;;;;;15.27;3.10;;;;;;;10.26;100.00;100558.59;5014471;28;20473;-76
2023/05/10 04:15:22;;;;;;;12.32;2.70;;;;;;;10.27;100.00;100560.25;5026576;28;20443;-76
2023/05/10 04:17:47;;;;;;;17.75;2.95;;;;;;;10.26;100.00;100559.41;4996699;28;20045;-76
2023/05/10 04:20:13;;;;;;;16.45;2.72;;;;;;;10.29;100.00;100558.03;5013765;28;20030;-76
2023/05/10 04:22:38;;;;;;;18.48;2.85;;;;;;;10.24;100.00;100564.41;5000284;28;20410;-76
2023/05/10 04:25:04;;;;;;;14.68;2.58;;;;;;;10.22;100.00;100563.88;5024176;28;20106;-76
2023/05/10 04:27:30;;;;;;;12.88;2.67;;;;;;;10.24;100.00;100564.41;5045705;28;20061;-76
2023/05/10 04:29:56;;;;;;;16.40;2.67;;;;;;;10.24;100.00;100560.81;5000318;28;20474;-76
2023/05/10 04:32:22;;;;;;;19.15;3.28;;;;;;;10.20;100.00;100562.53;4998418;28;20426;-76
2023/05/10 04:34:47;;;;;;;18.92;2.53;;;;;;;10.20;100.00;100560.56;5044349;28;20029;-76
2023/05/10 04:37:12;;;;;;;10.90;2.58;;;;;;;10.16;100.00;100564.22;5012422;28;20025;-76
2023/05/10 04:39:38;;;;;;;11.63;2.45;;;;;;;10.13;100.00;100564.78;5033427;28;20029;-76
2023/05/10 04:42:05;;;;;;;14.48;2.60;;;;;;;10.10;100.00;100571.75;4998407;28;20029;-76
2023/05/10 04:44:31;;;;;;;13.75;2.92;;;;;;;10.07;100.00;100564.81;5021429;28;20053;-76
2023/05/10 04:46:57;;;;;;;16.33;2.90;;;;;;;10.07;100.00;100570.38;5036900;28;20091;-76
2023/05/10 04:49:22;;;;;;;13.95;2.38;;;;;;;10.07;100.00;100577.88;5021841;28;20021;-77
2023/05/10 04:51:48;;;;;;;18.55;2.80;;;;;;;10.02;100.00;100570.41;5030363;28;20033;-76
2023/05/10 04:54:13;;;;;;;13.50;2.63;;;;;;;10.01;100.00;100568.75;5016251;28;20029;-76
2023/05/10 04:56:38;;;;;;;14.73;3.10;;;;;;;9.95;100.00;100569.91;5046390;28;20044;-76
2023/05/10 04:59:04;;;;;;;13.45;2.38;;;;;;;9.98;100.00;100574.06;5043527;28;20038;-76
2023/05/10 05:01:29;;;;;;;19.20;2.83;;;;;;;10.00;100.00;100581.00;5013519;28;20040;-76
2023/05/10 05:03:55;;;;;;;12.60;2.20;;;;;;;10.01;100.00;100574.31;5050369;28;20087;-76
2023/05/10 05:06:20;;;;;;;12.48;2.33;;;;;;;10.01;100.00;100585.41;5046018;28;20040;-76
2023/05/10 05:08:46;;;;;;;11.27;2.50;;;;;;;9.99;100.00;100578.50;5026138;28;20033;-79
2023/05/10 05:11:12;;;;;;;15.90;2.63;;;;;;;10.02;100.00;100581.50;5029085;28;20029;-79
2023/05/10 05:13:37;;;;;;;16.77;2.67;;;;;;;10.05;100.00;100580.94;5016109;28;20077;-79
2023/05/10 05:16:03;;;;;;;13.20;2.45;;;;;;;10.13;100.00;100581.44;5011363;28;20021;-76
2023/05/10 05:18:28;;;;;;;15.23;2.42;;;;;;;10.14;100.00;100586.72;5025674;28;20085;-76
2023/05/10 05:20:54;;;;;;;10.00;2.13;;;;;;;10.20;100.00;100581.94;5029898;28;20025;-76
2023/05/10 05:23:20;;;;;;;10.25;2.55;;;;;;;10.25;100.00;100585.50;5032188;28;20025;-76
2023/05/10 05:25:46;;;;;;;18.83;3.22;;;;;;;10.28;100.00;100595.25;4983334;28;20409;-77
2023/05/10 05:28:12;;;;;;;13.70;3.10;;;;;;;10.32;100.00;100587.97;5001647;28;20018;-76
2023/05/10 05:30:37;;;;;;;13.45;2.65;;;;;;;10.36;100.00;100588.22;4999380;28;20474;-77
2023/05/10 05:33:03;;;;;;;21.17;3.30;;;;;;;10.36;100.00;100591.81;5014238;28;20029;-77
2023/05/10 05:35:28;;;;;;;18.48;3.38;;;;;;;10.39;100.00;100593.19;5027487;28;20079;-77
2023/05/10 05:37:54;;;;;;;14.95;2.47;;;;;;;10.41;100.00;100597.31;5025603;28;20030;-77
2023/05/10 05:40:20;;;;;;;15.18;3.10;;;;;;;10.43;100.00;100597.88;5046079;28;20033;-76
2023/05/10 05:42:45;;;;;;;19.55;3.80;;;;;;;10.46;100.00;100602.84;5001985;28;20061;-76
2023/05/10 05:45:12;;;;;;;15.32;2.80;;;;;;;10.50;100.00;100609.50;5011463;28;20032;-76
2023/05/10 05:47:39;;;;;;;13.63;2.85;;;;;;;10.52;100.00;100612.78;5035270;28;20033;-76
2023/05/10 05:50:05;;;;;;;14.20;3.00;;;;;;;10.55;100.00;100613.31;5010740;28;20056;-76
2023/05/10 05:52:30;;;;;;;14.43;3.28;;;;;;;10.59;100.00;100615.25;5025419;28;20040;-77
2023/05/10 05:54:56;;;;;;;17.63;3.05;;;;;;;10.60;100.00;100618.84;4997262;28;20394;-76
2023/05/10 05:57:21;;;;;;;18.60;3.10;;;;;;;10.64;100.00;100617.13;5031695;28;20369;-76
2023/05/10 05:59:47;;;;;;;17.60;3.15;;;;;;;10.68;100.00;100620.97;5044767;28;20040;-77
2023/05/10 06:02:12;;;;;;;17.15;2.97;;;;;;;10.73;100.00;100623.72;4989313;28;20049;-76
2023/05/10 06:04:38;;;;;;;16.15;2.65;;;;;;;10.80;100.00;100635.31;4995108;28;20502;-77
2023/05/10 06:07:03;;;;;;;18.52;3.08;;;;;;;10.89;100.00;100628.00;5008996;28;20547;-77
2023/05/10 06:09:29;;;;;;;17.20;2.95;;;;;;;10.98;100.00;100619.84;5029003;28;20041;-76
2023/05/10 06:11:54;;;;;;;18.13;2.95;;;;;;;11.07;100.00;100620.84;5008774;28;20041;-76
2023/05/10 06:14:20;;;;;;;16.23;2.60;;;;;;;11.15;100.00;100630.50;5029045;28;20026;-76
2023/05/10 06:16:46;;;;;;;23.90;3.47;;;;;;;11.22;100.00;100625.41;5014833;28;20029;-77
2023/05/10 06:19:11;;;;;;;15.93;3.63;;;;;;;11.30;100.00;100635.88;5011360;28;20052;-77
2023/05/10 06:21:37;;;;;;;15.77;2.85;;;;;;;11.39;100.00;100633.28;5025278;28;20025;-76
2023/05/10 06:24:02;;;;;;;22.45;3.38;;;;;;;11.41;100.00;100634.63;5046463;28;20034;-76
2023/05/10 06:26:28;;;;;;;12.38;2.63;;;;;;;11.49;100.00;100635.13;4985424;28;20112;-76
2023/05/10 06:28:53;;;;;;;17.08;2.30;;;;;;;11.57;100.00;100640.03;5045718;28;20032;-77
2023/05/10 06:31:19;;;;;;;16.83;2.80;;;;;;;11.64;100.00;100637.69;5034929;28;20030;-77
2023/05/10 06:33:44;;;;;;;17.50;3.83;;;;;;;11.72;100.00;100648.16;4995125;28;20025;-76
2023/05/10 06:36:10;;;;;;;15.23;3.40;;;;;;;11.78;100.00;100646.13;5024781;28;20071;-76
2023/05/10 06:38:35;;;;;;;18.58;2.70;;;;;;;11.84;100.00;100645.78;5008574;28;20402;-77
2023/05/10 06:41:00;;;;;;;14.27;3.28;;;;;;;11.94;100.00;100646.78;5018218;28;20021;-77
2023/05/10 06:43:28;;;;;;;15.45;2.60;;;;;;;12.01;100.00;100645.31;5028534;28;20026;-77
2023/05/10 06:45:53;;;;;;;15.70;3.08;;;;;;;12.11;100.00;100638.75;5048669;28;20394;-76
2023/05/10 06:48:19;;;;;;;23.00;3.17;;;;;;;12.20;100.00;100645.31;5029188;28;20037;-77
2023/05/10 06:50:44;;;;;;;19.30;2.75;;;;;;;12.31;100.00;100643.16;5012047;28;20033;-77
2023/05/10 06:53:10;;;;;;;17.77;2.88;;;;;;;12.40;100.00;100646.13;5052112;28;20485;-77
2023/05/10 06:55:35;;;;;;;17.60;3.85;;;;;;;12.50;100.00;100638.41;4986028;28;20107;-77
2023/05/10 06:58:01;;;;;;;20.45;3.30;;;;;;;12.60;100.00;100645.78;5029436;28;20032;-77
2023/05/10 07:00:27;;;;;;;15.13;2.92;;;;;;;12.69;100.00;100646.72;5012010;28;20117;-77
2023/05/10 07:02:52;;;;;;;16.58;3.03;;;;;;;12.81;100.00;100626.72;5050316;28;20060;-77
2023/05/10 07:05:18;;;;;;;13.15;2.67;;;;;;;12.94;100.00;100644.63;5008558;28;20112;-76
2023/05/10 07:07:43;;;;;;;15.02;2.78;;;;;;;13.09;100.00;100635.13;4985660;28;20386;-76
2023/05/10 07:10:09;;;;;;;14.18;2.60;;;;;;;13.26;100.00;100635.41;5016546;28;20026;-77
2023/05/10 07:12:35;;;;;;;14.45;2.88;;;;;;;13.41;100.00;100637.88;5033519;28;20115;-76
2023/05/10 07:15:00;;;;;;;17.70;3.15;;;;;;;13.55;100.00;100629.50;5034515;28;20032;-77
2023/05/10 07:17:26;;;;;;;23.10;3.42;;;;;;;13.70;100.00;100638.69;5047057;28;20090;-77
2023/05/10 07:19:51;;;;;;;16.45;2.60;;;;;;;13.83;100.00;100629.47;5045889;28;20374;-77
2023/05/10 07:22:17;;;;;;;14.50;3.08;;;;;;;13.95;100.00;100638.13;4987674;28;20080;-76
2023/05/10 07:24:42;;;;;;;15.75;2.90;;;;;;;14.05;100.00;100642.66;5006870;28;20405;-77
2023/05/10 07:27:08;;;;;;;17.13;3.22;;;;;;;14.15;100.00;100628.47;5012771;28;20147;-77
2023/05/10 07:29:34;;;;;;;20.02;3.25;;;;;;;14.25;100.00;100633.78;4991913;28;20026;-77
2023/05/10 07:32:00;;;;;;;16.42;3.42;;;;;;;14.33;100.00;100637.81;5012767;28;20025;-77
2023/05/10 07:34:25;;;;;;;11.73;2.20;;;;;;;14.39;100.00;100647.72;5011252;28;20393;-77
2023/05/10 07:36:51;;;;;;;15.43;2.90;;;;;;;14.45;100.00;100643.66;5044383;28;20029;-77
2023/05/10 07:39:16;;;;;;;14.55;2.83;;;;;;;14.53;100.00;100644.91;5004484;28;20080;-77
2023/05/10 07:41:42;;;;;;;14.18;2.70;;;;;;;14.58;100.00;100641.97;5028698;28;20040;-77
2023/05/10 07:44:08;;;;;;;16.10;3.00;;;;;;;14.65;100.00;100641.53;5039579;28;20026;-77
2023/05/10 07:46:33;;;;;;;16.02;2.72;;;;;;;14.72;100.00;100639.13;5034189;28;20052;-77
2023/05/10 07:48:58;;;;;;;16.08;2.95;;;;;;;14.79;100.00;100633.88;5037215;28;20034;-77
2023/05/10 07:51:24;;;;;;;15.57;2.95;;;;;;;14.85;100.00;100635.44;5034031;28;20034;-77
2023/05/10 07:53:50;;;;;;;18.15;3.03;;;;;;;14.93;100.00;100634.66;5032731;28;20662;-77
2023/05/10 07:56:27;;;;;;;16.20;3.35;;;;;;;15.03;100.00;100627.13;5036976;28;20037;-77
2023/05/10 07:58:53;;;;;;;16.08;2.75;;;;;;;15.10;100.00;100633.91;4984626;28;20029;-77
2023/05/10 08:01:19;;;;;;;19.65;3.60;;;;;;;15.17;100.00;100627.84;5011292;28;20036;-77
2023/05/10 08:03:45;;;;;;;19.90;3.35;;;;;;;15.24;100.00;100633.81;5027348;28;20033;-77
2023/05/10 08:06:10;;;;;;;14.30;2.55;;;;;;;15.30;100.00;100632.53;5032681;28;20025;-77
2023/05/10 08:08:36;;;;;;;15.43;2.47;;;;;;;15.34;100.00;100639.09;5001076;28;20017;-77
2023/05/10 08:11:01;;;;;;;13.05;2.90;;;;;;;15.41;100.00;100645.06;5004172;28;20211;-77
2023/05/10 08:13:27;;;;;;;21.45;3.75;;;;;;;15.45;100.00;100638.81;5033587;28;20029;-77
2023/05/10 08:15:53;;;;;;;18.63;3.38;;;;;;;15.49;100.00;100642.63;5028259;28;20040;-77
2023/05/10 08:18:19;;;;;;;18.40;3.05;;;;;;;15.45;100.00;100638.81;4990976;28;20029;-77
2023/05/10 08:20:44;;;;;;;18.10;2.83;;;;;;;15.42;100.00;100641.13;5000689;28;20022;-78
2023/05/10 08:23:11;;;;;;;15.02;2.85;;;;;;;15.40;100.00;100642.59;5017177;28;20032;-77
2023/05/10 08:25:37;;;;;;;15.80;2.80;;;;;;;15.36;100.00;100642.41;5049204;28;20055;-78
2023/05/10 08:28:02;;;;;;;21.27;3.00;;;;;;;15.34;100.00;100649.47;5016939;28;20037;-77
2023/05/10 08:30:28;;;;;;;12.90;2.30;;;;;;;15.29;100.00;100653.22;5010960;28;20028;-77
2023/05/10 08:32:53;;;;;;;12.13;2.60;;;;;;;15.26;100.00;100655.84;5022291;28;20032;-77
2023/05/10 08:35:19;;;;;;;19.55;3.15;;;;;;;15.18;100.00;100655.50;5048436;28;20083;-78
2023/05/10 08:37:45;;;;;;;13.20;2.97;;;;;;;15.15;100.00;100652.50;5028838;28;20489;-78
2023/05/10 08:40:11;;;;;;;16.45;2.58;;;;;;;15.11;100.00;100652.34;5046558;28;20489;-77
2023/05/10 08:42:37;;;;;;;14.05;2.53;;;;;;;15.08;100.00;100658.59;5040399;28;20033;-77
2023/05/10 08:45:03;;;;;;;10.85;2.30;;;;;;;15.05;100.00;100659.22;5012499;28;20037;-77
2023/05/10 08:47:28;;;;;;;12.18;2.50;;;;;;;14.97;100.00;100655.22;5014171;28;20237;-77
2023/05/10 08:49:54;;;;;;;14.43;2.33;;;;;;;14.97;100.00;100658.03;5044354;28;20025;-77
2023/05/10 08:52:19;;;;;;;16.45;2.80;;;;;;;14.95;100.00;100659.47;5009976;28;20036;-77
2023/05/10 08:54:45;;;;;;;11.73;1.95;;;;;;;14.92;100.00;100657.34;5016010;28;20075;-77
2023/05/10 08:57:10;;;;;;;12.02;2.58;;;;;;;14.91;100.00;100658.50;5032506;28;20032;-77
2023/05/10 08:59:39;;;;;;;15.15;2.90;;;;;;;14.90;100.00;100657.63;5010070;28;20040;-77
2023/05/10 09:02:04;;;;;;;10.38;2.30;;;;;;;14.86;100.00;100656.63;5018750;28;20094;-77
2023/05/10 09:04:30;;;;;;;10.75;2.58;;;;;;;14.90;100.00;100654.84;5002978;28;20448;-77
2023/05/10 09:06:55;;;;;;;12.57;2.38;;;;;;;14.94;100.00;100661.47;5005639;28;20030;-77
2023/05/10 09:09:21;;;;;;;10.27;2.58;;;;;;;14.98;100.00;100659.66;4983797;28;20025;-77
2023/05/10 09:11:46;;;;;;;10.85;2.05;;;;;;;15.06;100.00;100660.88;4970799;28;20037;-77
2023/05/10 09:14:12;;;;;;;8.82;1.80;;;;;;;15.15;100.00;100650.53;4986840;28;20044;-77
2023/05/10 09:16:38;;;;;;;12.13;2.75;;;;;;;15.28;100.00;100657.19;4989012;28;20114;-78
2023/05/10 09:19:03;;;;;;;12.80;2.42;;;;;;;15.38;100.00;100662.50;5003080;28;20057;-77
2023/05/10 09:21:30;;;;;;;13.50;2.08;;;;;;;15.49;100.00;100663.06;4999666;28;20041;-78
2023/05/10 09:23:56;;;;;;;14.07;2.38;;;;;;;15.58;100.00;100663.91;5023498;28;20108;-77
2023/05/10 09:26:24;;;;;;;10.00;2.55;;;;;;;15.65;100.00;100666.22;5005013;28;20029;-77
2023/05/10 09:28:54;;;;;;;14.52;2.70;;;;;;;15.70;100.00;100668.09;5007848;28;20063;-77
2023/05/10 09:31:20;;;;;;;7.30;2.17;;;;;;;15.73;100.00;100668.25;4986158;28;20406;-77
2023/05/10 09:33:46;;;;;;;12.60;2.47;;;;;;;15.76;100.00;100672.38;4999300;28;20030;-77
2023/05/10 09:36:12;;;;;;;12.48;2.90;;;;;;;15.76;100.00;100678.78;5030064;28;20042;-77
2023/05/10 09:38:53;;;;;;;12.27;2.63;;;;;;;15.75;100.00;100667.94;5025261;28;20082;-77
2023/05/10 09:41:22;;;;;;;15.25;2.80;;;;;;;15.72;100.00;100666.63;4973587;28;20484;-77
2023/05/10 09:43:48;;;;;;;13.38;2.53;;;;;;;15.68;100.00;100675.94;5019226;28;20036;-77
2023/05/10 09:46:14;;;;;;;10.15;2.45;;;;;;;15.64;100.00;100675.78;4985678;28;20026;-78
2023/05/10 09:48:45;;;;;;;13.25;2.63;;;;;;;15.59;100.00;100668.34;4992626;28;20037;-77
2023/05/10 09:51:21;;;;;;;10.40;2.40;;;;;;;15.53;100.00;100671.63;5003609;28;20128;-77
2023/05/10 09:53:47;;;;;;;16.30;2.65;;;;;;;15.51;100.00;100665.50;4990495;28;20059;-77
2023/05/10 09:56:13;;;;;;;12.93;2.70;;;;;;;15.50;100.00;100669.47;5012255;28;20037;-77
2023/05/10 09:58:38;;;;;;;14.38;3.08;;;;;;;15.48;100.00;100663.38;5002341;28;20395;-77
2023/05/10 10:01:04;;;;;;;13.52;2.97;;;;;;;15.45;100.00;100675.22;4973054;28;20025;-77
2023/05/10 10:03:30;;;;;;;15.75;3.08;;;;;;;15.45;100.00;100672.41;5003019;28;20376;-77
2023/05/10 10:05:55;;;;;;;10.15;2.30;;;;;;;15.45;100.00;100669.59;5001723;28;20037;-77
2023/05/10 10:08:21;;;;;;;12.80;2.88;;;;;;;15.49;100.00;100665.84;4970696;28;20442;-77
2023/05/10 10:10:46;;;;;;;16.40;2.65;;;;;;;15.53;100.00;100658.44;5021621;28;20160;-77
2023/05/10 10:13:12;;;;;;;11.45;2.75;;;;;;;15.59;100.00;100659.13;5002184;28;20026;-77
2023/05/10 10:15:38;;;;;;;9.70;2.40;;;;;;;15.63;100.00;100662.94;5005131;28;20095;-77
2023/05/10 10:18:03;;;;;;;11.95;2.88;;;;;;;15.67;100.00;100660.31;5023108;28;20029;-77
2023/05/10 10:20:29;;;;;;;16.35;2.70;;;;;;;15.68;100.00;100654.41;5015032;28;20069;-77
2023/05/10 10:22:55;;;;;;;13.65;2.70;;;;;;;15.72;100.00;100654.59;5005871;28;20112;-77
2023/05/10 10:25:21;;;;;;;11.20;2.47;;;;;;;15.73;100.00;100659.84;5027255;28;20029;-78
2023/05/10 10:27:53;;;;;;;13.85;2.75;;;;;;;15.73;100.00;100654.25;5008775;28;20022;-78
2023/05/10 10:30:41;;;;;;;9.73;2.15;;;;;;;15.70;100.00;100654.91;5005620;28;20037;-77
2023/05/10 10:33:12;;;;;;;9.95;3.15;;;;;;;15.66;100.00;100651.09;5026725;28;20481;-78
2023/05/10 10:35:38;;;;;;;11.00;2.40;;;;;;;15.67;100.00;100646.31;4994270;28;20335;-77
2023/05/10 10:38:04;;;;;;;9.85;2.30;;;;;;;15.68;100.00;100651.59;4982752;28;20092;-77
2023/05/10 10:40:33;;;;;;;9.57;2.53;;;;;;;15.68;100.00;100648.81;5015720;28;20034;-77
2023/05/10 10:43:21;;;;;;;9.63;2.50;;;;;;;15.74;100.00;100647.53;5007290;28;20036;-77
2023/05/10 10:46:16;;;;;;;11.30;2.35;;;;;;;15.81;100.00;100653.44;5026042;28;20066;-78
2023/05/10 10:48:51;;;;;;;11.80;2.70;;;;;;;15.94;100.00;100648.06;4986925;28;20533;-77
2023/05/10 10:51:16;;;;;;;10.93;2.40;;;;;;;16.06;100.00;100654.66;5002334;28;20041;-77
2023/05/10 10:53:42;;;;;;;8.50;2.20;;;;;;;16.18;100.00;100642.78;5018702;28;20046;-77
2023/05/10 10:56:09;;;;;;;12.00;2.17;;;;;;;16.31;100.00;100652.19;5015160;28;20073;-77
2023/05/10 10:58:36;;;;;;;8.30;2.20;;;;;;;16.42;100.00;100641.50;5013718;28;20030;-78
2023/05/10 11:01:18;;;;;;;9.82;1.95;;;;;;;16.56;100.00;100649.72;4992430;28;20056;-78
2023/05/10 11:03:58;;;;;;;10.05;1.77;;;;;;;16.69;100.00;100646.75;5004262;28;20095;-77
2023/05/10 11:06:34;;;;;;;4.45;1.60;;;;;;;16.80;100.00;100640.81;5029410;28;20393;-77
2023/05/10 11:09:11;;;;;;;8.30;1.63;;;;;;;16.90;100.00;100648.88;4984394;28;20023;-77